Time;durP1;ratioP1;P1;durP2;ratioP2;P2;SDS_P1;SDS_P2;PMS_P1;PMS_P2;Temp;Humidity;BMP_temperature;BMP_pressure;BME280_temperature;BME280_humidity;BME280_pressure;Samples;Min_cycle;Max_cycle;Signal;HPM_P1;HPM_P2
2022/07/11 00:00:11;;;;;;;3.97;1.30;;;17.40;99.90;;;;;;5033427;28;20025;-33
2022/07/11 00:02:39;;;;;;;4.05;1.08;;;17.40;99.90;;;;;;5034345;28;20103;-32
2022/07/11 00:05:05;;;;;;;5.95;1.60;;;17.40;99.90;;;;;;5035983;28;20461;-31
2022/07/11 00:07:31;;;;;;;4.25;1.25;;;17.40;99.90;;;;;;5017317;28;20042;-31
2022/07/11 00:09:56;;;;;;;3.78;1.02;;;17.40;99.90;;;;;;5035615;28;20018;-33
2022/07/11 00:12:26;;;;;;;1.88;1.30;;;17.40;99.90;;;;;;5035890;28;20030;-33
2022/07/11 00:14:55;;;;;;;1.52;1.20;;;17.50;99.90;;;;;;5036035;28;20017;-31
2022/07/11 00:17:21;;;;;;;2.88;1.00;;;17.50;99.90;;;;;;5034936;28;20049;-34
2022/07/11 00:19:46;;;;;;;1.23;1.13;;;17.50;99.90;;;;;;5035716;28;20493;-35
2022/07/11 00:22:12;;;;;;;3.63;1.25;;;17.60;99.90;;;;;;5017802;28;20074;-30
2022/07/11 00:24:38;;;;;;;2.00;0.85;;;17.50;99.90;;;;;;5035481;28;20037;-34
2022/07/11 00:27:04;;;;;;;5.00;0.77;;;17.50;99.90;;;;;;5035385;28;20477;-31
2022/07/11 00:29:31;;;;;;;3.53;0.80;;;17.50;99.90;;;;;;5035478;28;20499;-34
2022/07/11 00:31:57;;;;;;;6.43;1.17;;;17.40;99.90;;;;;;5036491;28;20477;-38
2022/07/11 00:34:23;;;;;;;3.63;0.80;;;17.40;99.90;;;;;;5034337;28;20033;-39
2022/07/11 00:36:49;;;;;;;2.85;1.00;;;17.50;99.90;;;;;;5034516;28;20032;-32
2022/07/11 00:39:15;;;;;;;2.10;1.08;;;17.40;99.90;;;;;;5035527;28;20474;-33
2022/07/11 00:41:41;;;;;;;3.83;1.35;;;17.40;99.90;;;;;;5034028;28;20034;-32
2022/07/11 00:44:06;;;;;;;2.45;0.95;;;17.50;99.90;;;;;;5034362;28;21977;-32
2022/07/11 00:46:32;;;;;;;2.97;1.13;;;17.40;99.90;;;;;;5034273;28;20544;-34
2022/07/11 00:48:59;;;;;;;1.17;0.80;;;17.40;99.90;;;;;;5034976;28;20045;-37
2022/07/11 00:51:25;;;;;;;1.43;0.77;;;17.40;99.90;;;;;;5034687;28;20061;-35
2022/07/11 00:53:57;;;;;;;12.73;1.23;;;17.40;99.90;;;;;;5034129;28;20477;-33
2022/07/11 00:56:24;;;;;;;8.95;2.13;;;17.40;99.90;;;;;;5034590;28;20091;-32
2022/07/11 00:58:50;;;;;;;;;;;17.40;99.90;;;;;;5034732;28;20096;-32
2022/07/11 01:01:17;;;;;;;2.72;1.45;;;17.40;99.90;;;;;;5035377;28;20377;-33
2022/07/11 01:03:43;;;;;;;1.88;0.73;;;17.40;99.90;;;;;;5025559;28;20014;-32
2022/07/11 01:06:09;;;;;;;3.70;1.00;;;17.40;99.90;;;;;;5039026;28;20523;-34
2022/07/11 01:08:35;;;;;;;3.25;1.10;;;17.40;99.90;;;;;;5027933;28;20155;-33
2022/07/11 01:11:15;;;;;;;4.00;1.40;;;17.40;99.90;;;;;;5016476;28;20105;-34
2022/07/11 01:13:41;;;;;;;2.15;0.90;;;17.40;99.90;;;;;;5022958;28;20029;-30
2022/07/11 01:16:25;;;;;;;13.20;1.50;;;17.40;99.90;;;;;;5019314;28;20021;-32
2022/07/11 01:18:52;;;;;;;8.02;1.00;;;17.40;99.90;;;;;;5032928;28;20508;-34
2022/07/11 01:21:24;;;;;;;0.68;0.68;;;17.40;99.90;;;;;;5037673;28;20112;-32
2022/07/11 01:23:51;;;;;;;3.08;0.82;;;17.40;99.90;;;;;;5032876;28;20165;-38
2022/07/11 01:26:18;;;;;;;3.83;0.67;;;17.40;99.90;;;;;;5031325;28;20021;-37
2022/07/11 01:28:44;;;;;;;2.53;0.90;;;17.40;99.90;;;;;;5033169;28;20481;-38
2022/07/11 01:31:11;;;;;;;4.20;1.20;;;17.40;99.90;;;;;;5032830;28;20029;-39
2022/07/11 01:33:37;;;;;;;4.13;1.10;;;17.40;99.90;;;;;;5044168;28;20470;-35
2022/07/11 01:36:03;;;;;;;3.40;0.73;;;17.30;99.90;;;;;;5031497;28;20094;-39
2022/07/11 01:38:28;;;;;;;4.40;0.80;;;17.30;99.90;;;;;;5033092;28;20558;-33
2022/07/11 01:40:54;;;;;;;2.22;1.20;;;17.30;99.90;;;;;;5014212;28;20482;-38
2022/07/11 01:43:20;;;;;;;3.10;0.80;;;17.30;99.90;;;;;;5033547;28;20030;-31
2022/07/11 01:45:46;;;;;;;1.17;0.52;;;17.20;99.90;;;;;;5032564;28;20032;-30
2022/07/11 01:48:11;;;;;;;1.08;0.82;;;17.20;99.90;;;;;;5031297;28;20426;-36
2022/07/11 01:50:37;;;;;;;2.85;1.23;;;17.20;99.90;;;;;;5033918;28;20102;-36
2022/07/11 01:53:03;;;;;;;1.08;0.90;;;17.20;99.90;;;;;;5031895;28;20517;-29
2022/07/11 01:55:28;;;;;;;4.50;1.10;;;17.20;99.90;;;;;;5033170;28;20172;-40
2022/07/11 01:57:54;;;;;;;3.72;1.10;;;17.10;99.90;;;;;;5032187;28;20030;-33
2022/07/11 02:00:20;;;;;;;5.18;1.15;;;17.10;99.90;;;;;;5033691;28;20061;-32
2022/07/11 02:02:46;;;;;;;2.20;1.02;;;17.20;99.90;;;;;;5036614;28;20078;-30
2022/07/11 02:05:11;;;;;;;4.22;0.90;;;17.10;99.90;;;;;;5033198;28;20033;-30
2022/07/11 02:10:21;;;;;;;6.47;1.17;;;17.10;99.90;;;;;;5001842;28;20086;-31
2022/07/11 02:12:47;;;;;;;4.50;1.10;;;17.20;99.90;;;;;;5033865;28;20112;-33
2022/07/11 02:15:13;;;;;;;3.67;0.98;;;17.00;99.90;;;;;;5029551;28;20469;-33
2022/07/11 02:17:39;;;;;;;2.13;1.45;;;17.00;99.90;;;;;;5032984;28;20029;-29
2022/07/11 02:20:05;;;;;;;2.92;1.10;;;17.00;99.90;;;;;;5031950;28;20424;-34
2022/07/11 02:22:31;;;;;;;1.17;0.90;;;17.00;99.90;;;;;;5031454;28;20076;-32
2022/07/11 02:24:56;;;;;;;4.25;1.23;;;17.00;99.90;;;;;;5035850;28;20421;-35
2022/07/11 02:28:08;;;;;;;3.72;1.10;;;17.00;99.90;;;;;;5033269;28;20032;-30
2022/07/11 02:30:36;;;;;;;3.00;0.80;;;17.00;99.90;;;;;;5022600;28;20041;-32
2022/07/11 02:33:03;;;;;;;2.70;0.80;;;17.00;99.90;;;;;;5032403;28;20025;-31
2022/07/11 02:35:29;;;;;;;2.63;1.40;;;17.00;99.90;;;;;;5012985;28;20393;-45
2022/07/11 02:37:54;;;;;;;4.35;1.45;;;17.00;99.90;;;;;;5036296;28;20020;-36
2022/07/11 02:40:20;;;;;;;2.25;1.00;;;17.10;99.90;;;;;;5016859;28;20045;-39
2022/07/11 02:42:46;;;;;;;3.17;1.30;;;17.10;99.90;;;;;;5007920;28;20037;-32
2022/07/11 02:45:11;;;;;;;3.17;1.13;;;17.10;99.90;;;;;;5033412;28;20026;-38
2022/07/11 02:47:40;;;;;;;7.30;1.10;;;17.10;99.90;;;;;;5028342;28;20044;-48
2022/07/11 02:50:11;;;;;;;1.60;1.30;;;17.00;99.90;;;;;;5033439;28;20049;-41
2022/07/11 02:52:40;;;;;;;1.58;1.38;;;17.00;99.90;;;;;;5031067;28;20073;-42
2022/07/11 02:55:07;;;;;;;3.10;1.30;;;17.10;99.90;;;;;;5032510;28;20032;-34
2022/07/11 02:57:33;;;;;;;1.58;1.48;;;17.00;99.90;;;;;;5033855;28;20034;-34
2022/07/11 02:59:58;;;;;;;4.78;1.30;;;17.00;99.90;;;;;;5017727;28;20101;-32
2022/07/11 03:02:24;;;;;;;5.07;1.60;;;17.00;99.90;;;;;;5035564;28;20505;-29
2022/07/11 03:04:50;;;;;;;3.63;1.30;;;17.00;99.90;;;;;;5039866;28;20036;-31
2022/07/11 03:07:16;;;;;;;6.15;1.23;;;17.10;99.90;;;;;;5034729;28;20026;-32
2022/07/11 03:09:42;;;;;;;4.93;1.45;;;17.10;99.90;;;;;;5019104;28;20547;-30
2022/07/11 03:12:08;;;;;;;4.43;1.65;;;17.10;99.90;;;;;;5017297;28;20405;-33
2022/07/11 03:14:33;;;;;;;8.07;1.90;;;17.10;99.90;;;;;;5035209;28;20026;-30
2022/07/11 03:16:59;;;;;;;0.90;0.82;;;17.10;99.90;;;;;;5007703;28;20030;-31
2022/07/11 03:19:25;;;;;;;1.40;1.30;;;17.10;99.90;;;;;;5028527;28;20051;-39
2022/07/11 03:21:51;;;;;;;1.50;1.40;;;17.10;99.90;;;;;;5036245;28;20366;-38
2022/07/11 03:24:17;;;;;;;4.80;1.65;;;17.10;99.90;;;;;;5035077;28;20044;-39
2022/07/11 03:26:43;;;;;;;4.32;1.27;;;17.20;99.90;;;;;;5018690;28;20025;-39
2022/07/11 03:29:08;;;;;;;2.90;1.45;;;17.20;99.90;;;;;;5035049;28;20029;-41
2022/07/11 03:31:34;;;;;;;5.32;1.92;;;17.20;99.90;;;;;;5034320;28;20103;-62
2022/07/11 03:34:00;;;;;;;7.05;1.38;;;17.20;99.90;;;;;;5034328;28;20028;-33
2022/07/11 03:36:26;;;;;;;2.70;1.60;;;17.20;99.90;;;;;;5035154;28;20025;-29
2022/07/11 03:38:51;;;;;;;5.20;1.58;;;17.20;99.90;;;;;;5034903;28;20021;-39
2022/07/11 03:41:17;;;;;;;7.00;1.60;;;17.20;99.90;;;;;;5036100;28;20026;-40
2022/07/11 03:43:43;;;;;;;3.17;1.60;;;17.20;99.90;;;;;;5035579;28;20071;-38
2022/07/11 03:46:08;;;;;;;1.60;1.50;;;17.20;99.90;;;;;;5041040;28;20022;-39
2022/07/11 03:48:35;;;;;;;8.88;2.42;;;17.20;99.90;;;;;;5035298;28;20048;-42
2022/07/11 03:51:01;;;;;;;2.57;1.53;;;17.20;99.90;;;;;;5037302;28;20034;-39
2022/07/11 03:53:27;;;;;;;2.85;1.92;;;17.20;99.90;;;;;;5035921;28;20036;-39
2022/07/11 03:55:53;;;;;;;4.55;1.50;;;17.30;99.90;;;;;;5034586;28;20113;-40
2022/07/11 03:58:18;;;;;;;5.07;1.83;;;17.30;99.90;;;;;;5035346;28;20108;-34
2022/07/11 04:00:44;;;;;;;6.15;1.80;;;17.30;99.90;;;;;;5016764;28;20476;-36
2022/07/11 04:03:10;;;;;;;7.22;1.92;;;17.30;99.90;;;;;;5031418;28;20512;-31
2022/07/11 04:05:36;;;;;;;4.88;1.80;;;17.30;99.90;;;;;;5038727;28;20057;-35
2022/07/11 04:08:02;;;;;;;4.30;1.60;;;17.20;99.90;;;;;;5034767;28;20022;-30
2022/07/11 04:10:27;;;;;;;5.57;1.50;;;17.30;99.90;;;;;;5033998;28;20059;-35
2022/07/11 04:12:53;;;;;;;4.55;1.23;;;17.30;99.90;;;;;;5032345;28;20032;-31
2022/07/11 04:15:19;;;;;;;1.83;1.65;;;17.30;99.90;;;;;;5034268;28;20040;-35
2022/07/11 04:17:44;;;;;;;8.63;2.05;;;17.30;99.90;;;;;;5034509;28;20034;-35
2022/07/11 04:20:10;;;;;;;4.50;1.88;;;17.30;99.90;;;;;;5036202;28;20099;-32
2022/07/11 04:22:36;;;;;;;2.13;1.88;;;17.30;99.90;;;;;;5033904;28;20033;-35
2022/07/11 04:25:02;;;;;;;5.85;1.60;;;17.30;99.90;;;;;;5033307;28;20033;-28
2022/07/11 04:27:29;;;;;;;1.63;1.52;;;17.30;99.90;;;;;;5033973;28;20492;-32
2022/07/11 04:29:54;;;;;;;3.38;1.48;;;17.30;99.90;;;;;;5032946;28;20053;-32
2022/07/11 04:32:20;;;;;;;6.18;1.90;;;17.30;99.90;;;;;;5034593;28;20029;-31
2022/07/11 04:34:46;;;;;;;1.67;1.55;;;17.30;99.90;;;;;;5032985;28;20508;-31
2022/07/11 04:37:12;;;;;;;8.23;1.35;;;17.30;99.90;;;;;;5034798;28;20034;-31
2022/07/11 04:39:37;;;;;;;4.22;1.40;;;17.40;99.90;;;;;;5032140;28;20030;-30
2022/07/11 04:42:03;;;;;;;2.28;1.60;;;17.40;99.90;;;;;;5035180;28;20037;-33
2022/07/11 04:44:29;;;;;;;7.03;1.95;;;17.40;99.90;;;;;;5033683;28;20120;-32
2022/07/11 04:46:55;;;;;;;2.95;1.77;;;17.40;99.90;;;;;;5022499;28;20022;-32
2022/07/11 04:49:21;;;;;;;2.92;2.05;;;17.50;99.90;;;;;;5032703;28;20381;-34
2022/07/11 04:51:46;;;;;;;4.03;1.77;;;17.40;99.90;;;;;;5033416;28;20022;-32
2022/07/11 04:54:12;;;;;;;14.43;2.38;;;17.40;99.90;;;;;;5033043;28;20111;-34
2022/07/11 04:56:38;;;;;;;4.55;1.80;;;17.40;99.90;;;;;;5032407;28;20022;-37
2022/07/11 04:59:07;;;;;;;3.67;2.30;;;17.40;99.90;;;;;;5034963;28;20026;-33
2022/07/11 05:01:33;;;;;;;5.53;2.50;;;17.30;99.90;;;;;;5032944;28;20022;-33
2022/07/11 05:03:58;;;;;;;9.40;2.55;;;17.30;99.90;;;;;;5031189;28;20388;-33
2022/07/11 05:06:42;;;;;;;8.10;2.80;;;17.30;99.90;;;;;;5022772;28;20034;-35
2022/07/11 05:09:08;;;;;;;5.97;2.47;;;17.30;99.90;;;;;;5030955;28;20021;-33
2022/07/11 05:11:34;;;;;;;5.28;1.90;;;17.20;99.90;;;;;;5032342;28;20029;-33
2022/07/11 05:14:00;;;;;;;11.30;4.60;;;17.20;99.90;;;;;;5033367;28;20021;-33
2022/07/11 05:16:26;;;;;;;3.35;2.35;;;17.20;99.90;;;;;;5031450;28;20128;-33
2022/07/11 05:18:51;;;;;;;7.65;3.58;;;17.20;99.90;;;;;;5030883;28;20026;-39
2022/07/11 05:21:22;;;;;;;6.28;3.72;;;17.30;99.90;;;;;;5031702;28;20040;-40
2022/07/11 05:23:47;;;;;;;7.60;4.13;;;17.20;99.90;;;;;;5032286;28;20488;-39
2022/07/11 05:26:14;;;;;;;4.13;3.40;;;17.20;99.90;;;;;;5033747;28;20079;-40
2022/07/11 05:28:40;;;;;;;6.65;3.22;;;17.20;99.90;;;;;;5032831;28;20028;-39
2022/07/11 05:31:06;;;;;;;11.40;4.32;;;17.10;99.90;;;;;;5035447;28;20045;-39
2022/07/11 05:33:32;;;;;;;7.53;4.10;;;17.10;99.90;;;;;;5033854;28;20509;-40
2022/07/11 05:35:58;;;;;;;9.23;3.90;;;17.10;99.90;;;;;;5014502;28;20061;-38
2022/07/11 05:38:24;;;;;;;4.88;3.95;;;17.20;99.90;;;;;;5031294;28;20060;-60
2022/07/11 05:40:49;;;;;;;7.38;2.92;;;17.20;99.90;;;;;;5030566;28;20556;-30
2022/07/11 05:43:15;;;;;;;11.40;4.50;;;17.20;99.90;;;;;;5028418;28;20029;-30
2022/07/11 05:45:40;;;;;;;3.67;2.97;;;17.20;99.90;;;;;;5015459;28;20436;-36
2022/07/11 05:48:06;;;;;;;4.47;2.78;;;17.20;99.90;;;;;;5032375;28;20080;-32
2022/07/11 05:50:31;;;;;;;3.75;2.20;;;17.30;99.90;;;;;;5032420;28;20481;-29
2022/07/11 05:52:58;;;;;;;6.30;2.10;;;17.30;99.90;;;;;;5030435;28;20037;-31
2022/07/11 05:55:24;;;;;;;2.97;1.67;;;17.30;99.90;;;;;;5015340;28;20029;-33
2022/07/11 05:57:50;;;;;;;3.40;1.83;;;17.20;99.90;;;;;;5030794;28;20029;-33
2022/07/11 06:00:15;;;;;;;2.25;1.50;;;17.20;99.90;;;;;;5003663;28;20026;-36
2022/07/11 06:02:44;;;;;;;5.53;1.80;;;17.20;99.90;;;;;;5029522;28;20473;-34
2022/07/11 06:05:11;;;;;;;7.10;1.95;;;17.20;99.90;;;;;;5029884;28;20461;-29
2022/07/11 06:10:21;;;;;;;7.43;3.35;;;17.20;99.90;;;;;;5031085;28;20448;-34
2022/07/11 06:12:47;;;;;;;3.05;1.25;;;17.20;99.90;;;;;;5028653;28;20026;-37
2022/07/11 06:15:13;;;;;;;2.03;1.17;;;17.10;99.90;;;;;;5026452;28;20053;-36
2022/07/11 06:17:39;;;;;;;5.38;1.92;;;17.10;99.90;;;;;;5030748;28;20029;-38
2022/07/11 06:20:05;;;;;;;1.35;1.25;;;17.10;99.90;;;;;;5032582;28;20449;-39
2022/07/11 06:22:30;;;;;;;2.03;1.00;;;17.10;99.90;;;;;;5032471;28;20021;-56
2022/07/11 06:24:56;;;;;;;1.95;1.00;;;17.20;99.90;;;;;;5033320;28;20159;-39
2022/07/11 06:27:22;;;;;;;1.23;1.13;;;17.30;99.90;;;;;;5029223;28;20040;-38
2022/07/11 06:29:47;;;;;;;1.10;1.00;;;17.20;99.90;;;;;;5009137;28;20469;-34
2022/07/11 06:32:13;;;;;;;1.83;0.93;;;17.20;99.90;;;;;;5014668;28;20060;-30
2022/07/11 06:34:38;;;;;;;1.10;0.75;;;17.20;99.90;;;;;;5030693;28;20022;-33
2022/07/11 06:37:04;;;;;;;3.90;1.98;;;17.20;99.90;;;;;;5029591;28;20022;-36
2022/07/11 06:39:29;;;;;;;0.82;0.82;;;17.20;99.90;;;;;;5026362;28;20147;-32
2022/07/11 06:41:55;;;;;;;4.53;1.20;;;17.20;99.90;;;;;;5029695;28;20033;-28
2022/07/11 06:44:21;;;;;;;2.20;0.98;;;17.30;99.90;;;;;;5032076;28;20529;-34
2022/07/11 06:46:48;;;;;;;1.63;0.93;;;17.30;99.90;;;;;;5029298;28;20471;-31
2022/07/11 06:49:13;;;;;;;0.70;0.70;;;17.30;99.90;;;;;;5026695;28;20573;-29
2022/07/11 06:51:39;;;;;;;1.45;1.00;;;17.30;99.90;;;;;;5008916;28;20104;-29
2022/07/11 06:54:05;;;;;;;1.58;0.73;;;17.40;99.90;;;;;;5031240;28;20105;-35
2022/07/11 06:56:31;;;;;;;3.95;1.25;;;17.40;99.90;;;;;;5023258;28;20064;-32
2022/07/11 06:58:57;;;;;;;1.80;0.75;;;17.50;99.90;;;;;;5015726;28;20037;-31
2022/07/11 07:01:22;;;;;;;5.25;0.90;;;17.50;99.90;;;;;;5029098;28;20366;-29
2022/07/11 07:03:48;;;;;;;1.38;0.68;;;17.50;99.90;;;;;;5030839;28;20385;-35
2022/07/11 07:06:14;;;;;;;4.50;0.80;;;17.60;99.90;;;;;;5026024;28;20033;-29
2022/07/11 07:08:40;;;;;;;1.17;0.50;;;17.60;99.90;;;;;;5030588;28;20432;-32
2022/07/11 07:11:05;;;;;;;0.50;0.50;;;17.70;99.90;;;;;;5031474;28;20018;-48
2022/07/11 07:13:31;;;;;;;0.57;0.57;;;17.70;99.90;;;;;;5030800;28;20025;-40
2022/07/11 07:15:57;;;;;;;1.00;0.65;;;17.70;99.90;;;;;;5025062;28;20037;-28
2022/07/11 07:18:24;;;;;;;1.38;0.63;;;17.80;99.90;;;;;;5011764;28;20125;-48
2022/07/11 07:20:50;;;;;;;3.88;0.70;;;17.80;99.90;;;;;;5031064;28;20080;-40
2022/07/11 07:23:16;;;;;;;7.20;1.45;;;17.80;99.90;;;;;;5029119;28;20018;-40
2022/07/11 07:25:42;;;;;;;1.13;0.77;;;17.80;99.90;;;;;;5028524;28;20025;-32
2022/07/11 07:28:08;;;;;;;1.17;0.68;;;17.90;99.90;;;;;;5029726;28;20021;-29
2022/07/11 07:30:34;;;;;;;0.90;0.60;;;18.00;99.90;;;;;;5031555;28;20030;-32
2022/07/11 07:33:00;;;;;;;0.50;0.40;;;18.00;99.90;;;;;;5030905;28;20026;-33
2022/07/11 07:35:26;;;;;;;0.77;0.50;;;18.00;99.90;;;;;;5031385;28;20469;-30
2022/07/11 07:37:52;;;;;;;0.35;0.35;;;18.00;99.90;;;;;;5032135;28;20029;-32
2022/07/11 07:40:18;;;;;;;0.32;0.20;;;18.00;99.90;;;;;;5028621;28;20378;-35
2022/07/11 07:42:44;;;;;;;1.95;0.50;;;18.00;99.90;;;;;;5031896;28;20108;-40
2022/07/11 07:45:10;;;;;;;0.38;0.30;;;18.10;99.90;;;;;;5035518;28;20481;-32
2022/07/11 07:47:36;;;;;;;0.20;0.20;;;18.20;99.90;;;;;;5039794;28;20033;-31
2022/07/11 07:50:02;;;;;;;0.38;0.38;;;18.20;99.90;;;;;;5050109;28;20461;-48
2022/07/11 07:52:28;;;;;;;0.52;0.32;;;18.20;99.90;;;;;;5044647;28;20497;-39
2022/07/11 07:54:54;;;;;;;0.68;0.32;;;18.30;99.90;;;;;;5034339;28;20030;-31
2022/07/11 07:57:19;;;;;;;0.85;0.45;;;18.30;99.90;;;;;;5033704;28;20060;-31
2022/07/11 07:59:45;;;;;;;0.30;0.30;;;18.40;99.90;;;;;;5034321;28;20041;-36
2022/07/11 08:02:10;;;;;;;0.77;0.35;;;18.50;99.90;;;;;;5015724;28;20539;-33
2022/07/11 08:04:36;;;;;;;0.30;0.30;;;18.50;99.90;;;;;;5033188;28;20095;-36
2022/07/11 08:07:02;;;;;;;0.20;0.20;;;18.60;99.90;;;;;;5033307;28;20025;-37
2022/07/11 08:09:28;;;;;;;1.10;0.50;;;18.60;99.90;;;;;;5030901;28;20399;-31
2022/07/11 08:11:54;;;;;;;0.65;0.50;;;18.60;99.90;;;;;;5036328;28;20052;-35
2022/07/11 08:14:20;;;;;;;0.70;0.40;;;18.60;99.90;;;;;;5022563;28;20022;-30
2022/07/11 08:16:47;;;;;;;2.17;0.30;;;18.50;99.90;;;;;;5027702;28;20117;-31
2022/07/11 08:19:13;;;;;;;0.40;0.40;;;18.30;99.90;;;;;;5031828;28;20017;-38
2022/07/11 08:21:39;;;;;;;0.95;0.50;;;18.30;99.90;;;;;;5030416;28;20139;-40
2022/07/11 08:24:06;;;;;;;2.85;0.25;;;18.40;99.90;;;;;;5030208;28;20470;-37
2022/07/11 08:26:32;;;;;;;0.40;0.40;;;18.40;99.90;;;;;;5027873;28;20033;-38
2022/07/11 08:28:57;;;;;;;1.48;0.43;;;18.50;99.90;;;;;;5008369;28;20025;-36
2022/07/11 08:31:24;;;;;;;0.30;0.30;;;18.60;99.90;;;;;;5021924;28;20025;-40
2022/07/11 08:33:51;;;;;;;0.43;0.43;;;18.70;99.90;;;;;;5031541;28;20063;-39
2022/07/11 08:36:17;;;;;;;1.40;0.60;;;18.70;99.90;;;;;;5028461;28;20033;-39
2022/07/11 08:38:46;;;;;;;1.65;0.40;;;18.80;99.90;;;;;;5033643;28;20379;-39
2022/07/11 08:41:13;;;;;;;1.42;0.60;;;18.70;99.90;;;;;;5027635;28;20029;-39
2022/07/11 08:43:41;;;;;;;1.30;0.13;;;18.80;99.90;;;;;;5027871;28;20080;-40
2022/07/11 08:46:09;;;;;;;0.22;0.20;;;18.80;99.90;;;;;;5022876;28;20037;-39
2022/07/11 08:48:41;;;;;;;0.20;0.20;;;19.00;99.90;;;;;;5027203;28;20064;-39
2022/07/11 08:51:11;;;;;;;0.17;0.13;;;19.10;99.90;;;;;;5032759;28;20022;-39
2022/07/11 08:53:44;;;;;;;0.45;0.22;;;19.20;99.90;;;;;;5029842;28;20025;-40
2022/07/11 08:56:14;;;;;;;0.47;0.30;;;19.40;99.90;;;;;;5010372;28;20033;-42
2022/07/11 08:58:42;;;;;;;1.02;0.30;;;19.50;99.90;;;;;;5013776;28;20038;-37
2022/07/11 09:01:08;;;;;;;1.13;0.40;;;19.60;99.90;;;;;;5031572;28;20053;-37
2022/07/11 09:03:36;;;;;;;0.10;0.10;;;19.70;99.90;;;;;;5019066;28;20877;-39
2022/07/11 09:06:02;;;;;;;1.15;0.30;;;19.80;99.90;;;;;;5031264;28;20025;-39
2022/07/11 09:08:29;;;;;;;0.08;0.08;;;19.80;99.90;;;;;;5025245;28;20026;-38
2022/07/11 09:10:55;;;;;;;0.40;0.30;;;19.90;99.90;;;;;;5022751;28;20466;-39
2022/07/11 09:13:26;;;;;;;0.35;0.10;;;19.80;99.90;;;;;;5020490;28;20026;-38
2022/07/11 09:15:59;;;;;;;0.20;0.10;;;19.70;99.90;;;;;;5018709;28;20145;-70
2022/07/11 09:18:25;;;;;;;3.17;0.63;;;19.70;99.90;;;;;;5025599;28;20084;-55
2022/07/11 09:26:22;;;;;;;0.20;0.20;;;19.70;99.90;;;;;;5033308;28;20086;-39
2022/07/11 09:29:08;;;;;;;5.57;0.45;;;19.60;99.90;;;;;;5018306;28;20033;-64
2022/07/11 09:31:35;;;;;;;0.90;0.30;;;19.50;99.90;;;;;;5018189;28;20030;-38
2022/07/11 09:34:11;;;;;;;0.20;0.20;;;19.40;99.90;;;;;;5018885;28;20023;-44
2022/07/11 09:36:40;;;;;;;1.65;0.65;;;19.40;99.90;;;;;;5016576;28;20037;-35
2022/07/11 09:39:09;;;;;;;0.13;0.13;;;19.50;99.90;;;;;;5017191;28;20033;-43
2022/07/11 09:41:36;;;;;;;0.30;0.30;;;19.50;99.90;;;;;;5000045;28;20033;-38
2022/07/11 09:44:13;;;;;;;0.13;0.13;;;19.40;99.90;;;;;;5018057;28;20053;-38
2022/07/11 09:46:40;;;;;;;0.20;0.20;;;19.40;99.90;;;;;;5021695;28;20064;-39
2022/07/11 09:49:07;;;;;;;0.63;0.30;;;19.30;99.90;;;;;;5017650;28;20033;-35
2022/07/11 09:51:34;;;;;;;1.90;0.50;;;19.40;99.90;;;;;;5000596;28;20041;-38
2022/07/11 09:54:00;;;;;;;0.28;0.28;;;19.40;99.90;;;;;;5019458;28;20487;-36
2022/07/11 09:56:39;;;;;;;0.20;0.20;;;19.40;99.90;;;;;;5021850;28;20026;-40
2022/07/11 09:59:05;;;;;;;0.22;0.20;;;19.40;99.90;;;;;;5025342;28;20466;-38
2022/07/11 10:01:31;;;;;;;0.38;0.38;;;19.50;99.90;;;;;;5014100;28;20556;-34
2022/07/11 10:03:58;;;;;;;2.55;0.30;;;19.60;99.90;;;;;;5013842;28;20167;-34
2022/07/11 10:06:24;;;;;;;0.20;0.20;;;19.60;99.90;;;;;;5014276;28;20033;-30
2022/07/11 10:08:54;;;;;;;0.95;0.40;;;19.60;99.90;;;;;;4996071;28;20944;-40
2022/07/11 10:11:20;;;;;;;0.25;0.22;;;19.50;99.90;;;;;;5013281;28;20505;-32
2022/07/11 10:13:46;;;;;;;0.77;0.75;;;19.60;99.90;;;;;;5017177;28;20359;-35
2022/07/11 10:16:41;;;;;;;1.90;0.40;;;19.70;99.90;;;;;;5013741;28;20377;-35
2022/07/11 10:19:18;;;;;;;2.92;0.38;;;19.80;99.90;;;;;;5004540;28;21040;-32
2022/07/11 10:21:51;;;;;;;;;;;19.90;99.90;;;;;;5014135;28;20481;-31
2022/07/11 10:24:45;;;;;;;15.07;1.58;;;19.90;99.90;;;;;;5012618;28;19917;-34
2022/07/11 10:27:32;;;;;;;1.95;0.30;;;20.00;99.90;;;;;;5014351;28;20493;-37
2022/07/11 10:29:58;;;;;;;0.20;0.20;;;20.10;99.90;;;;;;5017490;28;20029;-34
2022/07/11 10:32:23;;;;;;;0.20;0.20;;;20.30;99.90;;;;;;5020372;28;20501;-37
2022/07/11 10:35:09;;;;;;;0.30;0.30;;;20.50;99.90;;;;;;5023848;28;20025;-40
2022/07/11 10:37:51;;;;;;;0.43;0.28;;;20.60;99.90;;;;;;5030368;28;20087;-39
2022/07/11 10:40:42;;;;;;;0.20;0.20;;;20.50;99.90;;;;;;5025105;28;20437;-39
2022/07/11 10:43:08;;;;;;;0.55;0.30;;;20.50;99.90;;;;;;5019503;28;20571;-38
2022/07/11 10:45:58;;;;;;;0.20;0.20;;;20.50;99.90;;;;;;5018020;28;20021;-32
2022/07/11 10:48:25;;;;;;;1.00;0.30;;;20.50;99.90;;;;;;5019429;28;20497;-40
2022/07/11 10:51:03;;;;;;;0.08;0.08;;;20.50;99.90;;;;;;5024517;28;20477;-40
2022/07/11 10:53:36;;;;;;;0.35;0.20;;;20.60;99.90;;;;;;5024320;28;20033;-34
2022/07/11 10:56:16;;;;;;;0.13;0.13;;;20.50;99.90;;;;;;5026055;28;20487;-39
2022/07/11 10:58:43;;;;;;;0.20;0.20;;;20.60;99.90;;;;;;5030132;28;20040;-39
2022/07/11 11:01:11;;;;;;;0.98;0.10;;;20.70;99.90;;;;;;5010576;28;20497;-38
2022/07/11 11:03:40;;;;;;;0.10;0.10;;;20.70;99.90;;;;;;5024588;28;20030;-38
2022/07/11 11:06:07;;;;;;;0.50;0.20;;;20.80;99.90;;;;;;5023366;28;20477;-39
2022/07/11 11:08:35;;;;;;;0.22;0.22;;;20.90;99.90;;;;;;5025989;28;20485;-36
2022/07/11 11:11:05;;;;;;;0.47;0.47;;;21.00;99.90;;;;;;5026159;28;20493;-38
2022/07/11 11:13:35;;;;;;;0.17;0.17;;;21.20;99.90;;;;;;5025145;28;20021;-34
2022/07/11 11:16:02;;;;;;;0.22;0.22;;;21.40;99.90;;;;;;5029701;28;20107;-28
2022/07/11 11:18:34;;;;;;;0.20;0.20;;;21.50;99.90;;;;;;5034359;28;20525;-32
2022/07/11 11:21:00;;;;;;;0.30;0.22;;;21.40;99.90;;;;;;5018743;28;20033;-37
2022/07/11 11:23:27;;;;;;;0.10;0.10;;;21.50;99.90;;;;;;5036311;28;20036;-30
2022/07/11 11:25:53;;;;;;;0.47;0.30;;;21.40;99.90;;;;;;5035841;28;20030;-32
2022/07/11 11:28:22;;;;;;;0.57;0.40;;;21.20;99.90;;;;;;5035300;28;20029;-37
2022/07/11 11:30:56;;;;;;;3.13;0.30;;;21.20;99.90;;;;;;5035009;28;20025;-29
2022/07/11 11:33:21;;;;;;;0.20;0.20;;;21.20;99.90;;;;;;5032451;28;20033;-31
2022/07/11 11:36:09;;;;;;;0.32;0.32;;;21.10;99.90;;;;;;5035520;28;20021;-34
2022/07/11 11:38:46;;;;;;;0.68;0.30;;;21.20;99.90;;;;;;5035400;28;20552;-36
2022/07/11 11:41:20;;;;;;;0.20;0.20;;;21.40;99.90;;;;;;5027885;28;20083;-32
2022/07/11 11:43:46;;;;;;;1.55;0.30;;;21.50;99.90;;;;;;5035803;28;20079;-31
2022/07/11 11:46:13;;;;;;;0.10;0.10;;;21.60;99.90;;;;;;5035603;28;20029;-36
2022/07/11 11:48:45;;;;;;;0.30;0.10;;;21.70;99.90;;;;;;5034547;28;20099;-32
2022/07/11 11:51:13;;;;;;;0.47;0.40;;;21.70;99.90;;;;;;5035910;28;20117;-33
2022/07/11 11:53:43;;;;;;;0.85;0.30;;;21.80;99.90;;;;;;5034635;28;20029;-35
2022/07/11 11:56:22;;;;;;;0.20;0.20;;;21.70;99.90;;;;;;5035734;28;20508;-30
2022/07/11 11:58:49;;;;;;;0.82;0.20;;;21.60;99.90;;;;;;5035108;28;20075;-38
2022/07/11 12:01:20;;;;;;;0.22;0.20;;;21.50;99.90;;;;;;5033928;28;20469;-31
2022/07/11 12:03:52;;;;;;;0.45;0.35;;;21.50;99.90;;;;;;5034697;28;20048;-32
2022/07/11 12:06:21;;;;;;;0.20;0.20;;;21.50;99.90;;;;;;5035884;28;20435;-32
2022/07/11 12:08:47;;;;;;;2.10;0.20;;;21.50;99.90;;;;;;5035982;28;20446;-29
2022/07/11 12:11:16;;;;;;;0.30;0.30;;;21.60;99.90;;;;;;5035274;28;20100;-35
2022/07/11 12:13:42;;;;;;;0.30;0.20;;;21.70;99.90;;;;;;5036001;28;20470;-31
2022/07/11 12:19:19;;;;;;;0.77;0.20;;;22.30;99.90;;;;;;4984498;28;20565;-36
2022/07/11 12:21:53;;;;;;;0.55;0.40;;;22.30;99.90;;;;;;5027119;28;20486;-33
2022/07/11 12:24:21;;;;;;;0.20;0.20;;;22.10;99.90;;;;;;5033987;28;20043;-36
2022/07/11 12:26:47;;;;;;;0.17;0.17;;;22.10;99.90;;;;;;5035071;28;20199;-34
2022/07/11 12:29:19;;;;;;;0.30;0.30;;;22.00;99.90;;;;;;5033560;28;20056;-33
2022/07/11 12:31:51;;;;;;;0.70;0.20;;;22.00;99.90;;;;;;5035185;28;20030;-30
2022/07/11 12:34:20;;;;;;;0.13;0.13;;;22.10;99.90;;;;;;5034047;28;20033;-34
2022/07/11 12:36:47;;;;;;;1.80;0.40;;;22.20;99.90;;;;;;5035699;28;20026;-30
2022/07/11 12:39:27;;;;;;;2.72;0.73;;;22.30;99.90;;;;;;5033632;28;20389;-36
2022/07/11 12:41:53;;;;;;;0.30;0.30;;;22.50;99.90;;;;;;5035284;28;20516;-32
2022/07/11 12:47:07;;;;;;;0.98;0.25;;;22.70;99.90;;;;;;5035125;28;20469;-34
2022/07/11 12:49:33;;;;;;;4.18;2.03;;;22.80;99.90;;;;;;5034794;28;20049;-36
2022/07/11 12:52:02;;;;;;;0.43;0.30;;;23.00;99.90;;;;;;5034512;28;20025;-36
2022/07/11 12:54:33;;;;;;;0.20;0.20;;;23.00;99.90;;;;;;5017371;28;20112;-31
2022/07/11 12:57:03;;;;;;;0.20;0.20;;;23.10;99.90;;;;;;5016430;28;20071;-31
2022/07/11 12:59:31;;;;;;;0.35;0.10;;;23.30;99.90;;;;;;5033271;28;20496;-30
2022/07/11 13:02:05;;;;;;;0.20;0.20;;;23.40;99.90;;;;;;5034517;28;20406;-47
2022/07/11 13:04:34;;;;;;;1.00;0.40;;;23.30;99.90;;;;;;5017094;28;20032;-39
2022/07/11 13:10:03;;;;;;;4.82;0.32;;;22.80;99.90;;;;;;5034256;28;20041;-32